Time,TemperatureF,DewpointF,PressureIn,WindDirection,WindDirectionDegrees,WindSpeedMPH,WindSpeedGustMPH,Humidity,HourlyPrecipIn,Conditions,Clouds,dailyrainin,SoftwareType,DateUTC
2013-07-14 00:01:00,73.0,71.2,29.44,ENE,67,0.0,5.0,94,0.00,,,0.00,Weather View 32 v70,2013-07-14 04:01:00,
2013-07-14 00:06:00,73.0,71.2,29.44,NNE,22,0.0,5.0,94,0.00,,,0.00,Weather View 32 v70,2013-07-14 04:06:00,
2013-07-14 00:11:00,73.0,71.2,29.44,ESE,112,0.0,5.0,94,0.00,,,0.00,Weather View 32 v70,2013-07-14 04:11:00,
2013-07-14 00:16:00,73.0,71.2,29.44,NE,45,0.0,5.0,94,0.00,,,0.00,Weather View 32 v70,2013-07-14 04:16:00,
2013-07-14 00:21:00,73.0,71.2,29.46,ESE,112,0.0,5.0,94,0.00,,,0.00,Weather View 32 v70,2013-07-14 04:21:00,
2013-07-14 00:26:00,73.0,70.5,29.44,NNE,22,0.0,6.0,92,0.00,,,0.00,Weather View 32 v70,2013-07-14 04:26:00,
2013-07-14 00:31:00,73.0,70.5,29.44,NE,45,0.0,6.0,92,0.00,,,0.00,Weather View 32 v70,2013-07-14 04:31:00,
2013-07-14 00:36:00,73.0,70.5,29.44,East,90,0.0,6.0,92,0.00,,,0.00,Weather View 32 v70,2013-07-14 04:36:00,
2013-07-14 00:41:00,73.0,70.5,29.44,ENE,67,0.0,6.0,92,0.00,,,0.00,Weather View 32 v70,2013-07-14 04:41:00,
2013-07-14 00:46:00,73.0,70.5,29.44,NE,45,0.0,6.0,92,0.00,,,0.00,Weather View 32 v70,2013-07-14 04:46:00,
2013-07-14 00:51:00,73.0,70.5,29.44,NE,45,0.0,6.0,92,0.00,,,0.00,Weather View 32 v70,2013-07-14 04:51:00,
2013-07-14 00:56:00,73.0,70.5,29.44,ENE,67,0.0,6.0,92,0.00,,,0.00,Weather View 32 v70,2013-07-14 04:56:00,
2013-07-14 01:01:00,73.0,70.5,29.44,NE,45,0.0,6.0,92,0.00,,,0.00,Weather View 32 v70,2013-07-14 05:01:00,
2013-07-14 01:05:00,73.0,70.2,29.44,NE,45,0.0,6.0,91,0.00,,,0.00,Weather View 32 v70,2013-07-14 05:05:00,
2013-07-14 01:06:00,73.0,70.2,29.44,NNE,22,0.0,6.0,91,0.00,,,0.00,Weather View 32 v70,2013-07-14 05:06:00,
2013-07-14 02:34:00,79.0,78.4,29.49,ESE,112,0.0,0.0,98,0.00,,,0.00,Weather View 32 v70,2013-07-14 06:34:00,
2013-07-14 08:40:00,80.0,79.4,29.49,SE,135,0.0,0.0,98,-0.01,,,0.00,Weather View 32 v70,2013-07-14 12:40:00,
2013-07-14 09:04:00,81.0,77.8,29.49,SE,135,0.0,3.0,90,-0.01,,,0.00,Weather View 32 v70,2013-07-14 13:04:00,
2013-07-14 09:09:00,82.0,77.7,29.50,SSE,157,0.0,3.0,87,-0.01,,,0.00,Weather View 32 v70,2013-07-14 13:09:00,
2013-07-14 09:14:00,82.0,77.4,29.50,SE,135,0.0,3.0,86,-0.01,,,0.00,Weather View 32 v70,2013-07-14 13:14:00,
2013-07-14 09:19:00,82.0,77.4,29.50,SSE,157,0.0,3.0,86,-0.01,,,0.00,Weather View 32 v70,2013-07-14 13:19:00,
2013-07-14 09:24:00,81.0,76.7,29.50,SSE,157,0.0,6.0,87,-0.01,,,0.00,Weather View 32 v70,2013-07-14 13:24:00,
2013-07-14 09:29:00,81.0,76.7,29.49,SSW,202,0.0,7.0,87,-0.01,,,0.00,Weather View 32 v70,2013-07-14 13:29:00,
2013-07-14 09:34:00,81.0,76.4,29.50,SSE,157,0.0,7.0,86,0.00,,,0.00,Weather View 32 v70,2013-07-14 13:34:00,
2013-07-14 09:39:00,81.0,77.1,29.49,SE,135,1.0,7.0,88,-0.01,,,0.00,Weather View 32 v70,2013-07-14 13:39:00,
2013-07-14 09:44:00,80.0,76.1,29.49,SSE,157,0.0,7.0,88,-0.01,,,0.00,Weather View 32 v70,2013-07-14 13:44:00,
2013-07-14 09:49:00,81.0,77.1,29.50,East,90,0.0,7.0,88,-0.01,,,0.00,Weather View 32 v70,2013-07-14 13:49:00,
2013-07-14 09:54:00,81.0,76.7,29.49,SSW,202,0.0,7.0,87,-0.01,,,0.00,Weather View 32 v70,2013-07-14 13:54:00,
2013-07-14 09:59:00,81.0,77.1,29.50,SE,135,0.0,7.0,88,-0.01,,,0.00,Weather View 32 v70,2013-07-14 13:59:00,
2013-07-14 10:04:00,81.0,76.7,29.50,SE,135,4.0,7.0,87,0.00,,,0.00,Weather View 32 v70,2013-07-14 14:04:00,
2013-07-14 10:09:00,80.0,76.4,29.50,SE,135,0.0,7.0,89,0.00,,,0.00,Weather View 32 v70,2013-07-14 14:09:00,
2013-07-14 10:14:00,80.0,77.1,29.50,SE,135,0.0,7.0,91,0.00,,,0.00,Weather View 32 v70,2013-07-14 14:14:00,
2013-07-14 10:19:00,80.0,76.8,29.50,SSE,157,0.0,7.0,90,0.00,,,0.00,Weather View 32 v70,2013-07-14 14:19:00,
2013-07-14 10:24:00,81.0,78.1,29.53,ENE,67,0.0,7.0,91,0.00,,,0.00,Weather View 32 v70,2013-07-14 14:24:00,
2013-07-14 10:29:00,81.0,78.4,29.50,ESE,112,0.0,7.0,92,0.00,,,0.00,Weather View 32 v70,2013-07-14 14:29:00,
2013-07-14 10:34:00,82.0,78.8,29.50,ENE,67,0.0,7.0,90,0.00,,,0.00,Weather View 32 v70,2013-07-14 14:34:00,
2013-07-14 10:39:00,82.0,77.0,29.50,SSE,157,0.0,7.0,85,0.00,,,0.00,Weather View 32 v70,2013-07-14 14:39:00,
2013-07-14 10:44:00,82.0,76.7,29.50,SE,135,0.0,7.0,84,0.00,,,0.00,Weather View 32 v70,2013-07-14 14:44:00,
2013-07-14 10:49:00,82.0,75.6,29.50,SE,135,0.0,8.0,81,0.00,,,0.00,Weather View 32 v70,2013-07-14 14:49:00,
2013-07-14 10:54:00,82.0,76.3,29.50,NNE,22,0.0,8.0,83,0.00,,,0.00,Weather View 32 v70,2013-07-14 14:54:00,
2013-07-14 10:59:00,83.0,76.9,29.50,SSE,157,0.0,8.0,82,0.00,,,0.00,Weather View 32 v70,2013-07-14 14:59:00,
2013-07-14 11:04:00,83.0,76.5,29.50,North,360,0.0,8.0,81,0.00,,,0.00,Weather View 32 v70,2013-07-14 15:04:00,
2013-07-14 11:09:00,83.0,74.6,29.50,SE,135,3.0,8.0,76,0.00,,,0.00,Weather View 32 v70,2013-07-14 15:09:00,
2013-07-14 11:14:00,83.0,75.4,29.50,SSE,157,0.0,8.0,78,0.00,,,0.00,Weather View 32 v70,2013-07-14 15:14:00,
2013-07-14 11:19:00,84.0,76.0,29.50,SW,225,0.0,8.0,77,0.00,,,0.00,Weather View 32 v70,2013-07-14 15:19:00,
2013-07-14 11:24:00,84.0,75.2,29.50,SSW,202,0.0,8.0,75,0.00,,,0.00,Weather View 32 v70,2013-07-14 15:24:00,
2013-07-14 11:29:00,85.0,74.1,29.55,SE,135,0.0,8.0,70,0.00,,,0.00,Weather View 32 v70,2013-07-14 15:29:00,
2013-07-14 11:34:00,85.0,74.5,29.50,WNW,292,0.0,8.0,71,0.00,,,0.00,Weather View 32 v70,2013-07-14 15:34:00,
2013-07-14 11:39:00,85.0,73.6,29.50,South,180,0.0,8.0,69,0.00,,,0.00,Weather View 32 v70,2013-07-14 15:39:00,
2013-07-14 11:44:00,85.0,74.1,29.50,SW,225,0.0,8.0,70,0.00,,,0.00,Weather View 32 v70,2013-07-14 15:44:00,
2013-07-14 11:49:00,85.0,74.9,29.50,ESE,112,0.0,8.0,72,0.00,,,0.00,Weather View 32 v70,2013-07-14 15:49:00,
2013-07-14 11:54:00,85.0,72.3,29.50,SSW,202,0.0,7.0,66,0.00,,,0.00,Weather View 32 v70,2013-07-14 15:54:00,
2013-07-14 11:59:00,85.0,71.9,29.50,WSW,247,0.0,7.0,65,0.00,,,0.00,Weather View 32 v70,2013-07-14 15:59:00,
2013-07-14 12:04:00,85.0,73.2,29.50,SW,225,0.0,7.0,68,0.00,,,0.00,Weather View 32 v70,2013-07-14 16:04:00,
2013-07-14 12:09:00,86.0,72.3,29.50,SSE,157,0.0,7.0,64,0.00,,,0.00,Weather View 32 v70,2013-07-14 16:09:00,
2013-07-14 12:14:00,86.0,70.4,29.50,SSW,202,0.0,4.0,60,0.00,,,0.00,Weather View 32 v70,2013-07-14 16:14:00,
2013-07-14 12:19:00,85.0,70.9,29.50,SW,225,0.0,0.0,63,0.00,,,0.00,Weather View 32 v70,2013-07-14 16:19:00,
2013-07-14 12:24:00,85.0,71.4,29.50,SW,225,0.0,0.0,64,0.00,,,0.00,Weather View 32 v70,2013-07-14 16:24:00,
2013-07-14 12:29:00,86.0,75.0,29.50,SE,135,0.0,0.0,70,0.00,,,0.00,Weather View 32 v70,2013-07-14 16:29:00,
2013-07-14 12:34:00,87.0,70.9,29.50,SE,135,0.0,0.0,59,0.00,,,0.00,Weather View 32 v70,2013-07-14 16:34:00,
2013-07-14 12:39:00,87.0,70.9,29.50,SW,225,0.0,0.0,59,0.00,,,0.00,Weather View 32 v70,2013-07-14 16:39:00,
2013-07-14 12:44:00,87.0,69.3,29.51,SW,225,0.0,0.0,56,0.00,,,0.00,Weather View 32 v70,2013-07-14 16:44:00,
2013-07-14 12:49:00,87.0,69.3,29.50,South,180,0.0,0.0,56,0.00,,,0.00,Weather View 32 v70,2013-07-14 16:49:00,
2013-07-14 12:54:00,88.0,68.1,29.55,WSW,247,0.0,0.0,52,0.00,,,0.00,Weather View 32 v70,2013-07-14 16:54:00,
2013-07-14 12:59:00,87.0,68.3,29.49,WSW,247,0.0,0.0,54,0.00,,,0.00,Weather View 32 v70,2013-07-14 16:59:00,
2013-07-14 13:04:00,87.0,67.7,29.49,WSW,247,0.0,0.0,53,0.00,,,0.00,Weather View 32 v70,2013-07-14 17:04:00,
2013-07-14 13:09:00,88.0,68.1,29.49,SSW,202,0.0,0.0,52,0.00,,,0.00,Weather View 32 v70,2013-07-14 17:09:00,
2013-07-14 13:14:00,88.0,68.1,29.49,SSW,202,0.0,0.0,52,0.00,,,0.00,Weather View 32 v70,2013-07-14 17:14:00,
2013-07-14 13:19:00,88.0,67.5,29.49,SW,225,0.0,0.0,51,0.00,,,0.00,Weather View 32 v70,2013-07-14 17:19:00,
2013-07-14 13:24:00,88.0,66.4,29.49,SSW,202,0.0,0.0,49,0.00,,,0.00,Weather View 32 v70,2013-07-14 17:24:00,
2013-07-14 13:29:00,88.0,67.5,29.49,SSW,202,0.0,0.0,51,0.00,,,0.00,Weather View 32 v70,2013-07-14 17:29:00,
2013-07-14 13:34:00,88.0,67.5,29.49,SSE,157,0.0,0.0,51,0.00,,,0.00,Weather View 32 v70,2013-07-14 17:34:00,
2013-07-14 13:39:00,89.0,67.3,29.49,WSW,247,0.0,0.0,49,0.00,,,0.00,Weather View 32 v70,2013-07-14 17:39:00,
2013-07-14 13:44:00,89.0,67.3,29.49,SSW,202,0.0,0.0,49,0.00,,,0.00,Weather View 32 v70,2013-07-14 17:44:00,
2013-07-14 13:49:00,88.0,67.5,29.49,SSW,202,0.0,0.0,51,0.00,,,0.00,Weather View 32 v70,2013-07-14 17:49:00,
2013-07-14 13:54:00,87.0,67.2,29.49,NE,45,0.0,0.0,52,0.00,,,0.00,Weather View 32 v70,2013-07-14 17:54:00,
2013-07-14 13:59:00,88.0,68.6,29.50,SSW,202,0.0,0.0,53,0.00,,,0.00,Weather View 32 v70,2013-07-14 17:59:00,
2013-07-14 14:04:00,88.0,66.4,29.48,SSW,202,0.0,0.0,49,0.00,,,0.00,Weather View 32 v70,2013-07-14 18:04:00,
2013-07-14 14:09:00,87.0,67.2,29.48,SSW,202,0.0,0.0,52,0.00,,,0.00,Weather View 32 v70,2013-07-14 18:09:00,
2013-07-14 14:14:00,88.0,68.1,29.54,SW,225,0.0,0.0,52,0.00,,,0.00,Weather View 32 v70,2013-07-14 18:14:00,
2013-07-14 14:19:00,88.0,67.5,29.48,SW,225,0.0,0.0,51,0.00,,,0.00,Weather View 32 v70,2013-07-14 18:19:00,
2013-07-14 14:24:00,88.0,67.5,29.48,SW,225,0.0,0.0,51,0.00,,,0.00,Weather View 32 v70,2013-07-14 18:24:00,
2013-07-14 14:29:00,88.0,67.5,29.50,SSW,202,0.0,0.0,51,0.00,,,0.00,Weather View 32 v70,2013-07-14 18:29:00,
2013-07-14 14:34:00,88.0,67.5,29.48,SE,135,0.0,0.0,51,0.00,,,0.00,Weather View 32 v70,2013-07-14 18:34:00,
2013-07-14 14:39:00,88.0,68.1,29.48,WSW,247,0.0,0.0,52,0.00,,,0.00,Weather View 32 v70,2013-07-14 18:39:00,
2013-07-14 14:44:00,89.0,68.4,29.48,SE,135,0.0,0.0,51,0.00,,,0.00,Weather View 32 v70,2013-07-14 18:44:00,
2013-07-14 14:49:00,90.0,68.8,29.48,SE,135,0.0,0.0,50,0.00,,,0.00,Weather View 32 v70,2013-07-14 18:49:00,
2013-07-14 14:54:00,91.0,67.9,29.48,SW,225,0.0,0.0,47,0.00,,,0.00,Weather View 32 v70,2013-07-14 18:54:00,
2013-07-14 14:59:00,91.0,66.6,29.48,WSW,247,0.0,0.0,45,0.00,,,0.00,Weather View 32 v70,2013-07-14 18:59:00,
2013-07-14 15:04:00,92.0,67.5,29.48,ESE,112,0.0,0.0,45,0.00,,,0.00,Weather View 32 v70,2013-07-14 19:04:00,
2013-07-14 15:09:00,92.0,65.5,29.53,SSW,202,0.0,0.0,42,0.00,,,0.00,Weather View 32 v70,2013-07-14 19:09:00,
2013-07-14 15:14:00,92.0,68.2,29.49,South,180,0.0,0.0,46,0.00,,,0.00,Weather View 32 v70,2013-07-14 19:14:00,
2013-07-14 15:19:00,92.0,67.5,29.49,WSW,247,0.0,0.0,45,0.00,,,0.00,Weather View 32 v70,2013-07-14 19:19:00,
2013-07-14 15:24:00,91.0,65.3,29.48,SSW,202,0.0,0.0,43,0.00,,,0.00,Weather View 32 v70,2013-07-14 19:24:00,
2013-07-14 15:29:00,91.0,67.3,29.48,SSE,157,0.0,0.0,46,0.00,,,0.00,Weather View 32 v70,2013-07-14 19:29:00,
2013-07-14 15:34:00,92.0,68.8,29.48,SW,225,0.0,0.0,47,0.00,,,0.00,Weather View 32 v70,2013-07-14 19:34:00,
2013-07-14 15:39:00,92.0,66.9,29.47,SSW,202,0.0,0.0,44,0.00,,,0.00,Weather View 32 v70,2013-07-14 19:39:00,
2013-07-14 15:44:00,91.0,66.6,29.47,SE,135,0.0,0.0,45,0.00,,,0.00,Weather View 32 v70,2013-07-14 19:44:00,
2013-07-14 15:49:00,90.0,68.2,29.47,South,180,0.0,0.0,49,0.00,,,0.00,Weather View 32 v70,2013-07-14 19:49:00,
2013-07-14 15:54:00,91.0,67.3,29.47,SE,135,0.0,0.0,46,0.00,,,0.00,Weather View 32 v70,2013-07-14 19:54:00,
2013-07-14 15:59:00,92.0,66.9,29.47,SE,135,0.0,0.0,44,0.00,,,0.00,Weather View 32 v70,2013-07-14 19:59:00,
2013-07-14 16:04:00,91.0,67.3,29.47,East,90,0.0,0.0,46,0.00,,,0.00,Weather View 32 v70,2013-07-14 20:04:00,
2013-07-14 16:09:00,91.0,67.3,29.52,ENE,67,0.0,0.0,46,0.00,,,0.00,Weather View 32 v70,2013-07-14 20:09:00,
2013-07-14 16:14:00,91.0,67.9,29.47,NE,45,0.0,0.0,47,0.00,,,0.00,Weather View 32 v70,2013-07-14 20:14:00,
2013-07-14 16:19:00,92.0,68.8,29.47,NNE,22,0.0,0.0,47,0.00,,,0.00,Weather View 32 v70,2013-07-14 20:19:00,
2013-07-14 16:24:00,93.0,69.1,29.47,SSW,202,0.0,0.0,46,0.00,,,0.00,Weather View 32 v70,2013-07-14 20:24:00,
2013-07-14 16:29:00,93.0,66.4,29.47,South,180,0.0,0.0,42,0.00,,,0.00,Weather View 32 v70,2013-07-14 20:29:00,
2013-07-14 16:34:00,93.0,66.4,29.47,SE,135,0.0,0.0,42,0.00,,,0.00,Weather View 32 v70,2013-07-14 20:34:00,
2013-07-14 16:39:00,92.0,66.2,29.47,SE,135,0.0,0.0,43,0.00,,,0.00,Weather View 32 v70,2013-07-14 20:39:00,
2013-07-14 16:44:00,92.0,66.9,29.47,SSE,157,0.0,0.0,44,0.00,,,0.00,Weather View 32 v70,2013-07-14 20:44:00,
2013-07-14 16:49:00,91.0,66.6,29.47,ESE,112,0.0,0.0,45,0.00,,,0.00,Weather View 32 v70,2013-07-14 20:49:00,
2013-07-14 16:54:00,91.0,66.6,29.47,SSW,202,0.0,0.0,45,0.00,,,0.00,Weather View 32 v70,2013-07-14 20:54:00,
2013-07-14 16:59:00,91.0,66.6,29.52,SSE,157,0.0,0.0,45,0.00,,,0.00,Weather View 32 v70,2013-07-14 20:59:00,
2013-07-14 17:04:00,90.0,66.4,29.50,SSE,157,0.0,0.0,46,0.00,,,0.00,Weather View 32 v70,2013-07-14 21:04:00,
2013-07-14 17:09:00,89.0,64.8,29.46,SSE,157,0.0,0.0,45,0.00,,,0.00,Weather View 32 v70,2013-07-14 21:09:00,
2013-07-14 17:14:00,88.0,65.2,29.46,SE,135,0.0,0.0,47,0.00,,,0.00,Weather View 32 v70,2013-07-14 21:14:00,
2013-07-14 17:19:00,88.0,65.8,29.46,SSE,157,0.0,5.0,48,0.00,,,0.00,Weather View 32 v70,2013-07-14 21:19:00,
2013-07-14 17:24:00,88.0,65.8,29.46,SSE,157,0.0,5.0,48,0.00,,,0.00,Weather View 32 v70,2013-07-14 21:24:00,
2013-07-14 17:29:00,88.0,66.4,29.46,SE,135,0.0,5.0,49,0.00,,,0.00,Weather View 32 v70,2013-07-14 21:29:00,
2013-07-14 17:34:00,88.0,65.8,29.46,SW,225,1.0,5.0,48,0.00,,,0.00,Weather View 32 v70,2013-07-14 21:34:00,
2013-07-14 17:39:00,88.0,65.2,29.46,SE,135,0.0,6.0,47,0.00,,,0.00,Weather View 32 v70,2013-07-14 21:39:00,
2013-07-14 17:44:00,88.0,65.2,29.46,SSE,157,0.0,6.0,47,0.00,,,0.00,Weather View 32 v70,2013-07-14 21:44:00,
2013-07-14 17:49:00,88.0,66.4,29.46,SE,135,0.0,6.0,49,0.00,,,0.00,Weather View 32 v70,2013-07-14 21:49:00,
2013-07-14 17:54:00,88.0,66.4,29.46,SSE,157,0.0,6.0,49,0.00,,,0.00,Weather View 32 v70,2013-07-14 21:54:00,
2013-07-14 17:59:00,88.0,65.8,29.46,SSE,157,0.0,6.0,48,0.00,,,0.00,Weather View 32 v70,2013-07-14 21:59:00,
2013-07-14 18:04:00,88.0,66.4,29.51,South,180,0.0,6.0,49,0.00,,,0.00,Weather View 32 v70,2013-07-14 22:04:00,
2013-07-14 18:09:00,88.0,66.4,29.46,SSE,157,0.0,6.0,49,0.00,,,0.00,Weather View 32 v70,2013-07-14 22:09:00,
2013-07-14 18:14:00,87.0,66.0,29.45,SE,135,0.0,6.0,50,0.00,,,0.00,Weather View 32 v70,2013-07-14 22:14:00,
2013-07-14 18:19:00,87.0,67.2,29.46,SE,135,0.0,6.0,52,0.00,,,0.00,Weather View 32 v70,2013-07-14 22:19:00,
2013-07-14 18:24:00,86.0,67.3,29.45,SSW,202,3.0,6.0,54,0.00,,,0.00,Weather View 32 v70,2013-07-14 22:24:00,
2013-07-14 18:29:00,86.0,67.3,29.45,SSE,157,0.0,6.0,54,0.00,,,0.00,Weather View 32 v70,2013-07-14 22:29:00,
2013-07-14 18:34:00,86.0,67.3,29.45,South,180,0.0,6.0,54,0.00,,,0.00,Weather View 32 v70,2013-07-14 22:34:00,
2013-07-14 18:39:00,86.0,66.8,29.45,SSE,157,2.0,5.0,53,0.00,,,0.00,Weather View 32 v70,2013-07-14 22:39:00,
2013-07-14 18:44:00,86.0,66.3,29.45,South,180,0.0,6.0,52,0.00,,,0.00,Weather View 32 v70,2013-07-14 22:44:00,
2013-07-14 18:49:00,86.0,66.8,29.45,SE,135,0.0,6.0,53,0.00,,,0.00,Weather View 32 v70,2013-07-14 22:49:00,
2013-07-14 18:53:00,85.0,67.0,29.45,SSW,202,0.0,6.0,55,0.00,,,0.00,Weather View 32 v70,2013-07-14 22:53:00,
2013-07-14 19:54:00,82.0,67.2,29.46,SE,135,0.0,0.0,61,0.01,,,0.00,Weather View 32 v70,2013-07-14 23:54:00,
2013-07-14 19:55:00,82.0,67.2,29.46,SE,135,0.0,0.0,61,-0.01,,,0.00,Weather View 32 v70,2013-07-14 23:55:00,
2013-07-14 20:20:00,82.0,67.2,29.46,SE,135,0.0,0.0,61,-0.01,,,0.00,Weather View 32 v70,2013-07-15 00:20:00,
2013-07-14 20:25:00,81.0,66.7,29.45,SE,135,0.0,0.0,62,-0.01,,,0.00,Weather View 32 v70,2013-07-15 00:25:00,
2013-07-14 20:30:00,81.0,67.6,29.45,SE,135,0.0,0.0,64,-0.01,,,0.00,Weather View 32 v70,2013-07-15 00:30:00,
2013-07-14 20:35:00,81.0,68.1,29.45,SE,135,0.0,0.0,65,-0.01,,,0.00,Weather View 32 v70,2013-07-15 00:35:00,
2013-07-14 20:40:00,80.0,67.6,29.45,SE,135,0.0,0.0,66,-0.01,,,0.00,Weather View 32 v70,2013-07-15 00:40:00,
2013-07-14 20:45:00,80.0,68.4,29.45,SE,135,0.0,0.0,68,-0.01,,,0.00,Weather View 32 v70,2013-07-15 00:45:00,
2013-07-14 20:50:00,79.0,67.9,29.45,SE,135,0.0,0.0,69,-0.01,,,0.00,Weather View 32 v70,2013-07-15 00:50:00,
2013-07-14 20:55:00,79.0,68.8,29.45,SE,135,0.0,0.0,71,0.00,,,0.00,Weather View 32 v70,2013-07-15 00:55:00,
2013-07-14 21:00:00,79.0,69.6,29.45,SE,135,0.0,0.0,73,-0.01,,,0.00,Weather View 32 v70,2013-07-15 01:00:00,
2013-07-14 21:05:00,79.0,70.0,29.45,SE,135,0.0,0.0,74,-0.01,,,0.00,Weather View 32 v70,2013-07-15 01:05:00,
2013-07-14 21:10:00,78.0,69.8,29.49,SE,135,0.0,0.0,76,-0.01,,,0.00,Weather View 32 v70,2013-07-15 01:10:00,
2013-07-14 21:15:00,78.0,70.2,29.45,SE,135,0.0,0.0,77,-0.01,,,0.00,Weather View 32 v70,2013-07-15 01:15:00,
2013-07-14 21:20:00,78.0,70.9,29.45,SE,135,0.0,0.0,79,0.00,,,0.00,Weather View 32 v70,2013-07-15 01:20:00,
2013-07-14 21:25:00,78.0,71.3,29.46,SE,135,0.0,0.0,80,0.00,,,0.00,Weather View 32 v70,2013-07-15 01:25:00,
2013-07-14 21:30:00,78.0,71.7,29.45,SE,135,0.0,0.0,81,0.00,,,0.00,Weather View 32 v70,2013-07-15 01:30:00,
2013-07-14 21:35:00,78.0,72.4,29.46,SE,135,0.0,0.0,83,0.00,,,0.00,Weather View 32 v70,2013-07-15 01:35:00,
2013-07-14 21:40:00,77.0,71.8,29.46,SE,135,0.0,0.0,84,0.00,,,0.00,Weather View 32 v70,2013-07-15 01:40:00,
2013-07-14 21:45:00,77.0,72.1,29.46,SE,135,0.0,0.0,85,0.00,,,0.00,Weather View 32 v70,2013-07-15 01:45:00,
2013-07-14 21:50:00,77.0,72.5,29.46,SE,135,0.0,0.0,86,0.00,,,0.00,Weather View 32 v70,2013-07-15 01:50:00,
2013-07-14 21:55:00,76.0,71.8,29.46,SE,135,0.0,0.0,87,0.00,,,0.00,Weather View 32 v70,2013-07-15 01:55:00,
2013-07-14 22:00:00,76.0,72.2,29.46,SE,135,0.0,0.0,88,0.00,,,0.00,Weather View 32 v70,2013-07-15 02:00:00,
2013-07-14 22:05:00,76.0,73.2,29.46,SE,135,0.0,0.0,91,0.00,,,0.00,Weather View 32 v70,2013-07-15 02:05:00,
2013-07-14 22:10:00,76.0,73.5,29.46,SE,135,0.0,0.0,92,0.00,,,0.00,Weather View 32 v70,2013-07-15 02:10:00,
2013-07-14 22:15:00,76.0,73.5,29.46,SE,135,0.0,0.0,92,0.00,,,0.00,Weather View 32 v70,2013-07-15 02:15:00,
2013-07-14 22:20:00,75.0,72.5,29.46,SE,135,0.0,0.0,92,0.00,,,0.00,Weather View 32 v70,2013-07-15 02:20:00,
2013-07-14 22:25:00,75.0,73.1,29.46,SE,135,0.0,0.0,94,0.00,,,0.00,Weather View 32 v70,2013-07-15 02:25:00,
2013-07-14 22:31:00,75.0,73.5,29.46,SE,135,0.0,0.0,95,0.00,,,0.00,Weather View 32 v70,2013-07-15 02:31:00,
2013-07-14 22:36:00,75.0,73.5,29.46,SE,135,0.0,0.0,95,0.00,,,0.00,Weather View 32 v70,2013-07-15 02:36:00,
2013-07-14 22:41:00,75.0,73.5,29.46,SE,135,0.0,0.0,95,0.00,,,0.00,Weather View 32 v70,2013-07-15 02:41:00,
2013-07-14 22:46:00,75.0,73.8,29.49,SE,135,0.0,0.0,96,0.00,,,0.00,Weather View 32 v70,2013-07-15 02:46:00,
2013-07-14 22:51:00,74.0,73.1,29.46,SE,135,0.0,0.0,97,0.00,,,0.00,Weather View 32 v70,2013-07-15 02:51:00,
2013-07-14 22:56:00,74.0,73.1,29.46,SE,135,0.0,0.0,97,0.00,,,0.00,Weather View 32 v70,2013-07-15 02:56:00,
2013-07-14 23:01:00,74.0,73.1,29.45,SE,135,0.0,0.0,97,0.00,,,0.00,Weather View 32 v70,2013-07-15 03:01:00,
2013-07-14 23:06:00,74.0,73.4,29.46,SE,135,0.0,0.0,98,0.00,,,0.00,Weather View 32 v70,2013-07-15 03:06:00,
2013-07-14 23:11:00,74.0,73.4,29.45,SE,135,0.0,0.0,98,0.00,,,0.00,Weather View 32 v70,2013-07-15 03:11:00,
2013-07-14 23:16:00,74.0,73.7,29.45,SE,135,0.0,0.0,99,0.00,,,0.00,Weather View 32 v70,2013-07-15 03:16:00,
2013-07-14 23:21:00,74.0,73.7,29.45,SE,135,0.0,0.0,99,0.00,,,0.00,Weather View 32 v70,2013-07-15 03:21:00,
2013-07-14 23:26:00,74.0,73.7,29.45,SE,135,0.0,0.0,99,0.00,,,0.00,Weather View 32 v70,2013-07-15 03:26:00,
2013-07-14 23:31:00,74.0,73.7,29.45,SE,135,0.0,0.0,99,0.00,,,0.00,Weather View 32 v70,2013-07-15 03:31:00,
2013-07-14 23:36:00,74.0,73.7,29.45,SE,135,0.0,0.0,99,0.00,,,0.00,Weather View 32 v70,2013-07-15 03:36:00,
2013-07-14 23:41:00,74.0,73.7,29.45,SE,135,0.0,0.0,99,0.00,,,0.00,Weather View 32 v70,2013-07-15 03:41:00,
2013-07-14 23:46:00,74.0,73.7,29.45,SE,135,0.0,0.0,99,0.00,,,0.00,Weather View 32 v70,2013-07-15 03:46:00,
2013-07-14 23:51:00,74.0,73.7,29.45,SE,135,0.0,0.0,99,0.00,,,0.00,Weather View 32 v70,2013-07-15 03:51:00,
2013-07-14 23:56:00,74.0,73.7,29.45,SE,135,0.0,0.0,99,0.00,,,0.00,Weather View 32 v70,2013-07-15 03:56:00,